Plymouth, Utah
Current Conditions -  °F | °C
As of 1:51 PM on Wednesday 26 Nov 2014 (Local Time) from KLGU Reporting Station
Clear Clear  
Wind Chill: 57°   Ceiling: Unl
Heat Index: 57°   Visibility: 10mi
Dew Point: 31°   Wind: 3mph
Humidity: 37%   Direction: 120°ESE
Pressure: 30.33"   Gusts: NA
Location:  41.88°N, 112.14°W
Report Text: KLGU 262051Z AUTO 12003KT 10SM CLR 14/M01 A3033 RMK AO2 SLP253 T01391006 56013
Loading
Personal Weather Stations






























Interactive Weather Map New forecast layout! Learn more

10-Day Weather Forecast

Advertisements
Track Severe Weather on mobile